createdAt,value
2018-04-13T00:01:16.564Z,6.07
2018-04-13T00:03:44.962Z,4.93
2018-04-13T00:06:13.277Z,5.40
2018-04-13T00:08:41.914Z,4.57
2018-04-13T00:11:10.072Z,3.73
2018-04-13T00:13:38.636Z,5.97
2018-04-13T00:16:07.562Z,4.07
2018-04-13T00:18:35.861Z,2.53
2018-04-13T00:21:06.385Z,3.00
2018-04-13T00:23:35.643Z,3.37
2018-04-13T00:26:04.584Z,4.10
2018-04-13T00:28:33.759Z,4.90
2018-04-13T00:31:03.310Z,2.37
2018-04-13T00:33:31.520Z,2.10
2018-04-13T00:36:00.581Z,2.60
2018-04-13T00:38:29.239Z,3.53
2018-04-13T00:40:57.460Z,2.83
2018-04-13T00:43:25.844Z,5.60
2018-04-13T00:45:54.324Z,2.37
2018-04-13T00:48:23.245Z,4.00
2018-04-13T00:50:51.571Z,3.00
2018-04-13T00:53:37.340Z,5.57
2018-04-13T00:56:05.682Z,3.10
2018-04-13T00:58:34.069Z,2.70
2018-04-13T01:01:03.153Z,4.13
2018-04-13T01:03:31.427Z,3.40
2018-04-13T01:06:00.479Z,4.53
2018-04-13T01:08:29.429Z,4.80
2018-04-13T01:10:57.987Z,4.33
2018-04-13T01:13:26.791Z,4.63
2018-04-13T01:15:55.690Z,3.50
2018-04-13T01:18:23.931Z,4.67
2018-04-13T01:20:52.408Z,4.93
2018-04-13T01:23:20.956Z,4.40
2018-04-13T01:25:48.920Z,3.77
2018-04-13T01:28:17.341Z,6.97
2018-04-13T01:30:46.377Z,4.07
2018-04-13T01:33:15.342Z,4.97
2018-04-13T01:35:44.464Z,6.20
2018-04-13T01:38:13.612Z,4.07
2018-04-13T01:40:42.322Z,3.07
2018-04-13T01:43:10.744Z,3.03
2018-04-13T01:45:39.300Z,3.60
2018-04-13T01:48:07.472Z,4.50
2018-04-13T01:50:35.816Z,4.80
2018-04-13T01:53:04.129Z,3.73
2018-04-13T01:55:33.080Z,4.80
2018-04-13T01:58:01.359Z,6.60
2018-04-13T02:00:30.393Z,3.90
2018-04-13T02:03:00.049Z,7.60
2018-04-13T02:05:28.390Z,5.40
2018-04-13T02:07:56.537Z,4.83
2018-04-13T02:10:24.708Z,2.87
2018-04-13T02:12:53.176Z,4.07
2018-04-13T02:15:21.589Z,2.67
2018-04-13T02:17:50.018Z,3.87
2018-04-13T02:20:18.532Z,4.33
2018-04-13T02:22:47.809Z,3.90
2018-04-13T02:25:17.133Z,5.40
2018-04-13T02:27:45.988Z,5.77
2018-04-13T02:30:14.354Z,3.97
2018-04-13T02:32:43.378Z,4.17
2018-04-13T02:35:12.072Z,8.17
2018-04-13T02:37:40.372Z,5.33
2018-04-13T02:40:09.328Z,3.23
2018-04-13T02:42:38.132Z,7.37
2018-04-13T02:45:06.514Z,4.80
2018-04-13T02:47:34.773Z,3.50
2018-04-13T02:50:03.479Z,7.40
2018-04-13T02:52:31.756Z,7.03
2018-04-13T02:54:59.845Z,3.83
2018-04-13T02:57:29.001Z,4.80
2018-04-13T02:59:57.110Z,3.50
2018-04-13T03:02:25.871Z,3.53
2018-04-13T03:04:54.237Z,5.57
2018-04-13T03:07:22.751Z,5.97
2018-04-13T03:09:52.129Z,5.20
2018-04-13T03:12:20.471Z,4.17
2018-04-13T03:14:48.801Z,5.07
2018-04-13T03:17:17.404Z,5.73
2018-04-13T03:19:45.841Z,8.53
2018-04-13T03:22:14.273Z,9.63
2018-04-13T03:24:42.577Z,2.97
2018-04-13T03:27:10.978Z,4.23
2018-04-13T03:29:40.278Z,6.50
2018-04-13T03:32:09.186Z,5.20
2018-04-13T03:34:37.503Z,4.13
2018-04-13T03:37:06.940Z,6.87
2018-04-13T03:39:35.023Z,4.73
2018-04-13T03:42:04.455Z,7.47
2018-04-13T03:44:33.524Z,3.83
2018-04-13T03:47:01.885Z,3.00
2018-04-13T03:49:30.160Z,4.23
2018-04-13T03:51:58.348Z,5.23
2018-04-13T03:54:26.931Z,6.03
2018-04-13T03:56:55.193Z,6.03
2018-04-13T03:59:23.496Z,5.73
2018-04-13T04:01:52.479Z,5.63
2018-04-13T04:04:20.913Z,4.30
2018-04-13T04:06:49.256Z,6.07
2018-04-13T04:09:18.004Z,7.20
2018-04-13T04:11:46.484Z,9.07
2018-04-13T04:14:14.632Z,4.20
2018-04-13T04:16:44.625Z,10.33
2018-04-13T04:19:13.912Z,7.07
2018-04-13T04:23:55.500Z,5.27
2018-04-13T04:26:59.156Z,4.93
2018-04-13T04:29:27.738Z,5.33
2018-04-13T04:31:56.115Z,4.53
2018-04-13T04:34:25.196Z,5.57
2018-04-13T04:36:53.991Z,7.50
2018-04-13T04:39:22.468Z,5.93
2018-04-13T04:41:52.084Z,5.83
2018-04-13T04:44:22.023Z,4.67
2018-04-13T04:46:50.159Z,4.43
2018-04-13T04:49:18.204Z,6.23
2018-04-13T04:51:47.273Z,3.90
2018-04-13T04:54:15.865Z,4.03
2018-04-13T04:56:44.735Z,3.53
2018-04-13T04:59:14.730Z,6.30
2018-04-13T05:01:43.141Z,5.77
2018-04-13T05:04:11.217Z,4.87
2018-04-13T05:06:39.722Z,6.10
2018-04-13T05:09:08.032Z,6.77
2018-04-13T05:11:36.404Z,6.70
2018-04-13T05:14:04.996Z,6.30
2018-04-13T05:16:33.164Z,4.20
2018-04-13T05:19:01.389Z,7.27
2018-04-13T05:21:30.027Z,3.53
2018-04-13T05:23:58.542Z,4.70
2018-04-13T05:26:28.260Z,6.33
2018-04-13T05:28:57.045Z,5.63
2018-04-13T05:31:25.246Z,5.53
2018-04-13T05:33:54.668Z,5.63
2018-04-13T05:36:23.572Z,5.60
2018-04-13T05:38:51.674Z,6.53
2018-04-13T05:41:20.608Z,6.60
2018-04-13T05:43:50.015Z,5.03
2018-04-13T05:46:19.375Z,7.87
2018-04-13T05:48:47.821Z,5.83
2018-04-13T05:51:16.385Z,5.10
2018-04-13T05:53:44.752Z,7.57
2018-04-13T05:56:14.955Z,6.53
2018-04-13T05:58:43.654Z,8.50
2018-04-13T06:01:12.544Z,5.27
2018-04-13T06:03:42.558Z,6.17
2018-04-13T06:06:11.784Z,5.37
2018-04-13T06:08:40.358Z,5.97
2018-04-13T06:11:09.857Z,5.10
2018-04-13T06:13:38.611Z,5.13
2018-04-13T06:16:07.807Z,7.43
2018-04-13T06:18:36.285Z,10.80
2018-04-13T06:21:05.605Z,7.77
2018-04-13T06:23:35.363Z,6.47
2018-04-13T06:26:03.697Z,6.50
2018-04-13T06:28:33.000Z,11.63
2018-04-13T06:31:01.917Z,7.93
2018-04-13T06:33:30.065Z,6.23
2018-04-13T06:35:59.009Z,11.20
2018-04-13T06:38:27.872Z,9.03
2018-04-13T06:40:56.950Z,9.87
2018-04-13T06:43:25.956Z,8.03
2018-04-13T06:45:54.520Z,7.73
2018-04-13T06:48:23.805Z,6.33
2018-04-13T06:50:52.958Z,6.93
2018-04-13T06:53:21.096Z,10.40
2018-04-13T06:55:50.048Z,8.87
2018-04-13T06:58:18.257Z,7.87
2018-04-13T07:00:46.377Z,12.10
2018-04-13T07:03:14.649Z,11.57
2018-04-13T07:05:42.901Z,13.03
2018-04-13T07:08:12.802Z,10.63
2018-04-13T07:10:41.016Z,6.33
2018-04-13T07:13:09.268Z,10.97
2018-04-13T07:15:38.509Z,8.30
2018-04-13T07:18:07.277Z,7.97
2018-04-13T07:20:38.090Z,9.57
2018-04-13T07:23:06.573Z,8.13
2018-04-13T07:25:35.115Z,11.17
2018-04-13T07:28:03.788Z,12.77
2018-04-13T07:30:33.100Z,8.47
2018-04-13T07:33:04.211Z,9.63
2018-04-13T07:35:34.021Z,10.43
2018-04-13T07:38:02.660Z,8.40
2018-04-13T07:40:31.386Z,9.50
2018-04-13T07:43:01.494Z,11.20
2018-04-13T07:45:30.405Z,10.20
2018-04-13T07:48:00.459Z,8.93
2018-04-13T07:50:31.313Z,8.43
2018-04-13T07:53:00.616Z,10.97
2018-04-13T07:55:31.128Z,8.97
2018-04-13T07:58:02.508Z,11.80
2018-04-13T08:00:30.739Z,9.27
2018-04-13T08:03:00.559Z,6.33
2018-04-13T08:05:30.236Z,8.97
2018-04-13T08:07:58.890Z,10.17
2018-04-13T08:10:30.397Z,7.57
2018-04-13T08:13:03.226Z,6.63
2018-04-13T08:15:37.419Z,7.40
2018-04-13T08:18:11.118Z,6.17
2018-04-13T08:20:43.753Z,8.90
2018-04-13T08:23:15.737Z,5.90
2018-04-13T08:25:44.084Z,7.50
2018-04-13T08:28:12.435Z,6.30
2018-04-13T08:30:40.778Z,7.00
2018-04-13T08:33:10.302Z,7.97
2018-04-13T08:35:38.834Z,5.77
2018-04-13T08:38:07.317Z,7.00
2018-04-13T08:40:38.170Z,6.77
2018-04-13T08:43:06.638Z,7.57
2018-04-13T08:45:35.499Z,7.20
2018-04-13T08:48:05.422Z,9.90
2018-04-13T08:50:33.747Z,8.43
2018-04-13T08:53:02.221Z,8.00
2018-04-13T08:55:30.545Z,8.37
2018-04-13T08:57:58.742Z,10.97
2018-04-13T09:00:27.346Z,10.83
2018-04-13T09:02:55.943Z,10.13
2018-04-13T09:05:24.241Z,13.80
2018-04-13T09:07:52.622Z,10.40
2018-04-13T09:10:21.882Z,10.83
2018-04-13T09:12:56.785Z,10.00
2018-04-13T09:15:30.405Z,9.60
2018-04-13T09:18:00.240Z,10.60
2018-04-13T09:20:28.668Z,9.00
2018-04-13T09:22:57.277Z,10.97
2018-04-13T09:25:25.788Z,15.33
2018-04-13T09:27:55.280Z,14.37
2018-04-13T09:30:24.292Z,9.07
2018-04-13T09:32:52.417Z,8.70
2018-04-13T09:35:21.251Z,11.40
2018-04-13T09:37:50.590Z,10.20
2018-04-13T09:40:18.970Z,9.63
2018-04-13T09:42:47.158Z,9.57
2018-04-13T09:45:15.767Z,9.97
2018-04-13T09:47:44.636Z,13.07
2018-04-13T09:50:13.100Z,12.33
2018-04-13T09:52:41.313Z,13.97
2018-04-13T09:55:11.227Z,13.20
2018-04-13T09:57:39.536Z,13.07
2018-04-13T10:00:07.713Z,19.20
2018-04-13T10:02:37.501Z,18.03
2018-04-13T10:05:10.388Z,19.13
2018-04-13T10:07:38.664Z,16.47
2018-04-13T10:10:07.500Z,20.87
2018-04-13T10:12:37.117Z,23.07
2018-04-13T10:15:05.454Z,23.80
2018-04-13T10:17:33.958Z,26.93
2018-04-13T10:20:02.619Z,24.50
2018-04-13T10:22:30.911Z,28.07
2018-04-13T10:24:59.730Z,27.77
2018-04-13T10:27:29.243Z,29.90
2018-04-13T10:29:58.705Z,26.57
2018-04-13T10:32:27.196Z,29.33
2018-04-13T10:34:55.910Z,28.40
2018-04-13T10:37:24.800Z,25.93
2018-04-13T10:39:53.468Z,26.90
2018-04-13T10:42:21.860Z,30.23
2018-04-13T10:44:50.668Z,30.23
2018-04-13T10:47:19.864Z,27.60
2018-04-13T10:49:48.767Z,27.73
2018-04-13T10:52:17.270Z,27.97
2018-04-13T10:54:45.415Z,29.67
2018-04-13T10:57:14.689Z,26.97
2018-04-13T10:59:43.581Z,30.83
2018-04-13T11:02:12.799Z,32.70
2018-04-13T11:04:41.565Z,37.30
2018-04-13T11:07:10.901Z,34.30
2018-04-13T11:09:39.957Z,37.07
2018-04-13T11:12:09.215Z,30.90
2018-04-13T11:14:37.891Z,30.90
2018-04-13T11:17:06.509Z,31.13
2018-04-13T11:19:35.476Z,29.13
2018-04-13T11:22:03.982Z,25.13
2018-04-13T11:24:32.099Z,30.37
2018-04-13T11:27:00.409Z,28.60
2018-04-13T11:29:28.486Z,31.23
2018-04-13T11:31:56.786Z,35.77
2018-04-13T11:34:25.205Z,33.60
2018-04-13T11:36:54.379Z,28.97
2018-04-13T11:39:23.613Z,31.40
2018-04-13T11:41:52.445Z,33.77
2018-04-13T11:44:20.782Z,30.00
2018-04-13T11:46:49.296Z,28.87
2018-04-13T11:49:17.742Z,22.90
2018-04-13T11:51:46.066Z,23.97
2018-04-13T11:54:14.613Z,21.20
2018-04-13T11:56:44.568Z,23.93
2018-04-13T11:59:14.173Z,24.50
2018-04-13T12:01:43.739Z,22.50
2018-04-13T12:04:12.282Z,25.53
2018-04-13T12:06:42.547Z,23.30
2018-04-13T12:09:10.963Z,25.43
2018-04-13T12:11:40.519Z,28.33
2018-04-13T12:14:10.234Z,28.90
2018-04-13T12:16:39.938Z,24.00
2018-04-13T12:19:09.657Z,24.53
2018-04-13T12:21:39.815Z,30.47
2018-04-13T12:24:09.252Z,31.90
2018-04-13T12:26:37.994Z,33.97
2018-04-13T12:29:08.600Z,36.63
2018-04-13T12:31:41.173Z,36.23
2018-04-13T12:34:11.591Z,40.40
2018-04-13T12:36:41.016Z,42.97
2018-04-13T12:39:11.013Z,44.10
2018-04-13T12:41:40.372Z,43.97
2018-04-13T12:44:10.242Z,42.53
2018-04-13T12:46:40.006Z,46.83
2018-04-13T12:49:10.892Z,50.90
2018-04-13T12:51:42.670Z,52.10
2018-04-13T12:54:11.553Z,62.53
2018-04-13T12:56:41.712Z,53.53
2018-04-13T12:59:10.884Z,58.70
2018-04-13T13:01:43.583Z,67.10
2018-04-13T13:04:12.855Z,69.53
2018-04-13T13:06:42.051Z,65.77
2018-04-13T13:09:14.161Z,55.83
2018-04-13T13:11:45.849Z,52.03
2018-04-13T13:14:17.047Z,52.27
2018-04-13T13:16:46.599Z,51.50
2018-04-13T13:19:15.064Z,58.00
2018-04-13T13:21:43.684Z,62.60
2018-04-13T13:24:12.679Z,46.37
2018-04-13T13:26:41.042Z,54.17
2018-04-13T13:29:10.158Z,43.43
2018-04-13T13:31:39.394Z,44.07
2018-04-13T13:34:09.980Z,38.27
2018-04-13T13:36:43.752Z,20.30
2018-04-13T13:39:16.495Z,22.73
2018-04-13T13:41:44.947Z,21.73
2018-04-13T13:44:16.021Z,15.00
2018-04-13T13:46:44.525Z,14.80
2018-04-13T13:49:12.890Z,11.93
2018-04-13T13:51:42.167Z,13.37
2018-04-13T13:54:12.545Z,13.43
2018-04-13T13:56:41.777Z,13.20
2018-04-13T13:59:11.026Z,15.20
2018-04-13T14:01:39.625Z,14.40
2018-04-13T14:04:08.656Z,12.57
2018-04-13T14:06:37.007Z,10.50
2018-04-13T14:09:09.715Z,12.80
2018-04-13T14:11:39.807Z,14.10
2018-04-13T14:14:08.689Z,12.70
2018-04-13T14:16:40.746Z,9.43
2018-04-13T14:19:12.951Z,11.07
2018-04-13T14:21:42.420Z,7.03
2018-04-13T14:24:11.295Z,8.07
2018-04-13T14:26:40.056Z,8.90
2018-04-13T14:29:09.019Z,6.27
2018-04-13T14:31:38.233Z,5.67
2018-04-13T14:34:10.449Z,6.77
2018-04-13T14:36:39.475Z,7.17
2018-04-13T14:39:11.460Z,7.47
2018-04-13T14:41:39.645Z,6.50
2018-04-13T14:44:07.870Z,5.83
2018-04-13T14:46:37.923Z,4.03
2018-04-13T14:49:06.463Z,5.40
2018-04-13T14:51:35.142Z,6.37
2018-04-13T14:54:04.026Z,4.60
2018-04-13T14:56:32.701Z,3.63
2018-04-13T14:59:00.892Z,3.40
2018-04-13T15:01:29.766Z,2.93
2018-04-13T15:03:58.966Z,3.43
2018-04-13T15:06:27.672Z,3.40
2018-04-13T15:08:56.359Z,3.73
2018-04-13T15:11:26.598Z,3.23
2018-04-13T15:13:56.910Z,4.03
2018-04-13T15:16:25.469Z,5.63
2018-04-13T15:18:54.712Z,2.90
2018-04-13T15:21:23.919Z,5.50
2018-04-13T15:23:52.485Z,5.83
2018-04-13T15:26:20.766Z,5.97
2018-04-13T15:28:51.624Z,5.17
2018-04-13T15:31:20.210Z,10.30
2018-04-13T15:33:48.859Z,5.30
2018-04-13T15:36:18.338Z,6.20
2018-04-13T15:38:46.913Z,6.47
2018-04-13T15:41:15.966Z,3.53
2018-04-13T15:43:44.685Z,6.90
2018-04-13T15:46:13.291Z,7.17
2018-04-13T15:48:42.252Z,6.10
2018-04-13T15:51:10.713Z,7.07
2018-04-13T15:53:39.455Z,5.80
2018-04-13T15:56:07.835Z,6.80
2018-04-13T15:58:37.685Z,6.60
2018-04-13T16:01:05.909Z,6.90
2018-04-13T16:03:34.940Z,8.37
2018-04-13T16:06:04.104Z,7.43
2018-04-13T16:08:32.584Z,14.63
2018-04-13T16:11:01.555Z,7.07
2018-04-13T16:13:30.912Z,10.97
2018-04-13T16:15:59.323Z,12.37
2018-04-13T16:18:28.483Z,10.80
2018-04-13T16:20:56.978Z,10.37
2018-04-13T16:23:25.408Z,13.30
2018-04-13T16:25:54.407Z,13.97
2018-04-13T16:28:22.730Z,12.47
2018-04-13T16:30:51.687Z,13.80
2018-04-13T16:33:20.297Z,14.03
2018-04-13T16:35:49.850Z,15.40
2018-04-13T16:38:19.151Z,15.63
2018-04-13T16:40:47.657Z,17.57
2018-04-13T16:43:17.248Z,17.40
2018-04-13T16:45:47.318Z,14.83
2018-04-13T16:48:15.897Z,16.50
2018-04-13T16:50:47.296Z,18.37
2018-04-13T16:53:19.483Z,16.53
2018-04-13T16:55:49.273Z,21.10
2018-04-13T16:58:19.288Z,17.60
2018-04-13T17:00:48.689Z,14.33
2018-04-13T17:03:16.861Z,13.07
2018-04-13T17:05:47.905Z,12.40
2018-04-13T17:08:16.977Z,10.13
2018-04-13T17:10:47.381Z,11.20
2018-04-13T17:13:15.569Z,13.20
2018-04-13T17:15:48.188Z,8.77
2018-04-13T17:18:17.672Z,7.60
2018-04-13T17:20:47.749Z,9.27
2018-04-13T17:23:16.707Z,5.73
2018-04-13T17:25:45.454Z,7.27
2018-04-13T17:28:14.362Z,6.33
2018-04-13T17:30:42.896Z,4.80
2018-04-13T17:33:11.770Z,5.10
2018-04-13T17:35:40.613Z,5.17
2018-04-13T17:38:09.049Z,4.67
2018-04-13T17:40:38.066Z,5.07
2018-04-13T17:43:06.112Z,3.63
2018-04-13T17:45:34.649Z,3.30
2018-04-13T17:48:03.098Z,9.23
2018-04-13T17:50:33.782Z,4.37
2018-04-13T17:53:03.270Z,3.07
2018-04-13T17:55:32.559Z,4.87
2018-04-13T17:58:03.271Z,3.80
2018-04-13T18:00:34.210Z,4.67
2018-04-13T18:03:03.355Z,5.43
2018-04-13T18:05:33.283Z,5.70
2018-04-13T18:08:02.840Z,6.13
2018-04-13T18:10:31.378Z,4.90
2018-04-13T18:13:00.799Z,5.60
2018-04-13T18:15:30.330Z,3.40
2018-04-13T18:18:02.286Z,7.27
2018-04-13T18:20:30.840Z,3.83
2018-04-13T18:22:59.586Z,3.03
2018-04-13T18:25:29.641Z,2.70
2018-04-13T18:27:58.329Z,4.00
2018-04-13T18:30:29.712Z,4.13
2018-04-13T18:32:59.509Z,4.97
2018-04-13T18:35:29.013Z,4.80
2018-04-13T18:37:58.257Z,3.50
2018-04-13T18:40:27.617Z,4.77
2018-04-13T18:42:56.321Z,4.00
2018-04-13T18:45:27.035Z,4.63
2018-04-13T18:47:56.614Z,4.97
2018-04-13T18:50:26.630Z,5.10
2018-04-13T18:52:55.505Z,4.17
2018-04-13T18:55:24.518Z,5.03
2018-04-13T18:57:54.179Z,6.73
2018-04-13T19:00:23.505Z,7.60
2018-04-13T19:02:51.936Z,7.47
2018-04-13T19:05:21.291Z,8.27
2018-04-13T19:07:50.710Z,8.27
2018-04-13T19:10:21.033Z,8.43
2018-04-13T19:12:50.201Z,9.27
2018-04-13T19:15:18.767Z,11.03
2018-04-13T19:17:47.144Z,11.93
2018-04-13T19:20:17.017Z,14.03
2018-04-13T19:22:45.883Z,14.83
2018-04-13T19:25:14.078Z,15.17
2018-04-13T19:27:44.383Z,15.97
2018-04-13T19:30:14.156Z,17.87
2018-04-13T19:32:44.064Z,16.43
2018-04-13T19:35:13.379Z,17.93
2018-04-13T19:37:41.536Z,29.10
2018-04-13T19:40:11.635Z,19.10
2018-04-13T19:42:40.337Z,19.97
2018-04-13T19:45:09.020Z,21.17
2018-04-13T19:47:38.013Z,22.97
2018-04-13T19:50:07.220Z,22.23
2018-04-13T19:52:36.298Z,19.63
2018-04-13T19:55:05.246Z,15.83
2018-04-13T19:57:33.553Z,18.53
2018-04-13T20:00:01.768Z,18.00
2018-04-13T20:02:30.219Z,16.33
2018-04-13T20:04:59.857Z,16.70
2018-04-13T20:07:28.986Z,18.13
2018-04-13T20:09:57.894Z,15.97
2018-04-13T20:12:26.685Z,14.27
2018-04-13T20:14:54.979Z,15.67
2018-04-13T20:17:23.509Z,20.13
2018-04-13T20:19:51.777Z,19.03
2018-04-13T20:22:20.595Z,15.80
2018-04-13T20:24:48.823Z,17.47
2018-04-13T20:27:17.938Z,14.33
2018-04-13T20:29:47.484Z,16.03
2018-04-13T20:32:15.966Z,18.93
2018-04-13T20:34:45.279Z,18.87
2018-04-13T20:37:14.778Z,19.53
2018-04-13T20:39:44.091Z,18.23
2018-04-13T20:42:14.403Z,17.70
2018-04-13T20:44:43.489Z,22.07
2018-04-13T20:47:11.734Z,17.83
2018-04-13T20:49:41.365Z,23.23
2018-04-13T20:52:10.013Z,21.63
2018-04-13T20:54:39.214Z,21.50
2018-04-13T20:57:09.698Z,21.73
2018-04-13T20:59:38.889Z,24.63
2018-04-13T21:02:07.797Z,23.60
2018-04-13T21:04:39.523Z,26.13
2018-04-13T21:07:07.785Z,25.17
2018-04-13T21:09:36.289Z,27.07
2018-04-13T21:12:05.271Z,27.73
2018-04-13T21:14:33.888Z,27.37
2018-04-13T21:17:02.492Z,29.50
2018-04-13T21:19:30.814Z,32.50
2018-04-13T21:22:00.187Z,29.37
2018-04-13T21:24:28.798Z,30.80
2018-04-13T21:26:57.720Z,31.03
2018-04-13T21:29:27.939Z,31.07
2018-04-13T21:31:59.135Z,31.97
2018-04-13T21:34:27.463Z,31.23
2018-04-13T21:36:55.913Z,29.60
2018-04-13T21:39:25.774Z,28.50
2018-04-13T21:41:54.862Z,29.20
2018-04-13T21:44:24.317Z,27.83
2018-04-13T21:46:54.746Z,26.73
2018-04-13T21:49:23.133Z,26.07
2018-04-13T21:51:54.369Z,27.03
2018-04-13T21:54:25.159Z,25.53
2018-04-13T21:56:58.233Z,28.77
2018-04-13T21:59:28.776Z,27.53
2018-04-13T22:01:58.754Z,27.40
2018-04-13T22:04:28.859Z,23.73
2018-04-13T22:06:57.488Z,22.30
2018-04-13T22:09:28.291Z,22.50
2018-04-13T22:11:57.267Z,20.20
2018-04-13T22:14:36.507Z,25.10
2018-04-13T22:17:05.591Z,22.33
2018-04-13T22:19:37.839Z,24.13
2018-04-13T22:22:06.217Z,22.67
2018-04-13T22:24:38.865Z,22.23
2018-04-13T22:27:07.487Z,22.90
2018-04-13T22:29:35.884Z,21.90
2018-04-13T22:32:11.032Z,20.67
2018-04-13T22:34:39.450Z,18.40
2018-04-13T22:37:08.813Z,19.53
2018-04-13T22:39:37.887Z,18.13
2018-04-13T22:42:07.093Z,18.70
2018-04-13T22:44:42.241Z,26.23
2018-04-13T22:47:10.724Z,24.60
2018-04-13T22:49:39.273Z,26.60
2018-04-13T22:52:07.593Z,23.50
2018-04-13T22:54:37.410Z,23.57
2018-04-13T22:57:06.172Z,19.90
2018-04-13T22:59:36.837Z,21.30
2018-04-13T23:02:06.093Z,21.30
2018-04-13T23:04:34.265Z,21.33
2018-04-13T23:07:02.747Z,22.10
2018-04-13T23:09:31.021Z,20.43
2018-04-13T23:11:59.290Z,20.67
2018-04-13T23:14:27.492Z,19.53
2018-04-13T23:16:55.871Z,21.33
2018-04-13T23:19:25.709Z,19.70
2018-04-13T23:21:54.858Z,20.57
2018-04-13T23:24:23.074Z,22.03
2018-04-13T23:26:52.091Z,20.90
2018-04-13T23:29:20.441Z,19.80
2018-04-13T23:31:52.058Z,22.23
2018-04-13T23:34:21.488Z,20.80
2018-04-13T23:36:50.745Z,21.73
2018-04-13T23:39:21.409Z,20.73
2018-04-13T23:41:50.093Z,18.97
2018-04-13T23:44:22.296Z,19.87
2018-04-13T23:46:50.800Z,20.67
2018-04-13T23:49:19.554Z,17.40
2018-04-13T23:51:49.873Z,18.77
2018-04-13T23:54:19.416Z,19.77
2018-04-13T23:56:47.854Z,19.13
2018-04-13T23:59:16.630Z,19.27
